createdAt,value
2023-02-26T00:01:25.752Z,5.55
2023-02-26T00:03:53.598Z,3.47
2023-02-26T00:06:20.286Z,3.45
2023-02-26T00:08:46.746Z,4.05
2023-02-26T00:11:13.657Z,4.32
2023-02-26T00:13:42.582Z,4.35
2023-02-26T00:16:29.160Z,4.65
2023-02-26T00:18:59.789Z,5.20
2023-02-26T00:21:26.917Z,4.28
2023-02-26T00:23:53.505Z,3.95
2023-02-26T00:26:20.640Z,3.83
2023-02-26T00:28:47.495Z,3.40
2023-02-26T00:31:17.746Z,4.80
2023-02-26T00:33:44.777Z,4.60
2023-02-26T00:36:14.273Z,3.80
2023-02-26T00:38:43.232Z,4.07
2023-02-26T00:41:09.974Z,4.47
2023-02-26T00:43:36.650Z,4.20
2023-02-26T00:46:07.627Z,4.78
2023-02-26T00:48:53.215Z,4.80
2023-02-26T00:51:23.598Z,5.30
2023-02-26T00:53:57.287Z,3.90
2023-02-26T00:56:24.309Z,4.68
2023-02-26T00:58:51.013Z,4.38
2023-02-26T01:01:17.610Z,4.40
2023-02-26T01:03:44.199Z,4.40
2023-02-26T01:06:13.193Z,4.90
2023-02-26T01:08:51.910Z,6.60
2023-02-26T01:11:19.062Z,3.67
2023-02-26T01:13:45.685Z,4.07
2023-02-26T01:16:14.335Z,4.15
2023-02-26T01:18:46.271Z,5.15
2023-02-26T01:21:19.097Z,4.05
2023-02-26T01:23:47.974Z,3.83
2023-02-26T01:26:26.410Z,5.00
2023-02-26T01:28:53.438Z,3.53
2023-02-26T01:31:26.227Z,2.83
2023-02-26T01:33:55.857Z,4.53
2023-02-26T01:36:24.556Z,4.50
2023-02-26T01:39:11.035Z,3.78
2023-02-26T01:41:47.620Z,3.55
2023-02-26T01:44:24.180Z,3.35
2023-02-26T01:47:00.042Z,2.67
2023-02-26T01:49:26.809Z,3.95
2023-02-26T01:51:54.455Z,6.00
2023-02-26T01:54:22.968Z,3.13
2023-02-26T01:56:57.640Z,4.15
2023-02-26T01:59:24.917Z,4.93
2023-02-26T02:01:52.772Z,3.67
2023-02-26T02:04:21.063Z,3.42
2023-02-26T02:06:48.151Z,4.22
2023-02-26T02:09:14.771Z,2.38
2023-02-26T02:12:01.029Z,3.20
2023-02-26T02:14:43.043Z,3.70
2023-02-26T02:17:21.480Z,4.25
2023-02-26T02:20:20.637Z,3.70
2023-02-26T02:23:00.179Z,3.70
2023-02-26T02:25:44.859Z,3.70
2023-02-26T02:28:37.754Z,3.85
2023-02-26T02:31:06.043Z,3.15
2023-02-26T02:33:43.433Z,3.22
2023-02-26T02:36:16.382Z,3.45
2023-02-26T02:38:46.077Z,2.88
2023-02-26T02:41:15.975Z,2.83
2023-02-26T02:43:43.302Z,4.28
2023-02-26T02:46:12.487Z,2.60
2023-02-26T02:48:40.706Z,3.10
2023-02-26T02:51:07.872Z,3.28
2023-02-26T02:53:37.435Z,2.90
2023-02-26T02:56:12.882Z,3.13
2023-02-26T02:58:42.040Z,2.35
2023-02-26T03:01:10.997Z,4.40
2023-02-26T03:03:50.421Z,2.92
2023-02-26T03:06:17.880Z,2.25
2023-02-26T03:08:45.132Z,4.05
2023-02-26T03:11:11.634Z,3.10
2023-02-26T03:13:39.701Z,3.60
2023-02-26T03:16:13.053Z,3.05
2023-02-26T03:18:42.481Z,3.30
2023-02-26T03:21:16.881Z,2.65
2023-02-26T03:23:46.719Z,2.38
2023-02-26T03:26:15.339Z,2.97
2023-02-26T03:28:49.857Z,3.17
2023-02-26T03:31:35.576Z,2.78
2023-02-26T03:34:05.089Z,2.45
2023-02-26T03:36:38.594Z,2.40
2023-02-26T03:39:41.914Z,3.35
2023-02-26T03:42:29.949Z,2.90
2023-02-26T03:45:03.041Z,2.47
2023-02-26T03:47:32.104Z,3.72
2023-02-26T03:50:06.824Z,4.13
2023-02-26T03:52:45.351Z,2.15
2023-02-26T03:55:24.268Z,2.60
2023-02-26T03:58:23.530Z,2.65
2023-02-26T04:01:20.645Z,3.45
2023-02-26T04:03:50.259Z,3.55
2023-02-26T04:06:17.108Z,2.92
2023-02-26T04:08:44.103Z,3.10
2023-02-26T04:11:12.207Z,2.95
2023-02-26T04:13:38.921Z,2.72
2023-02-26T04:16:05.676Z,2.55
2023-02-26T04:18:33.395Z,3.00
2023-02-26T04:21:00.006Z,2.72
2023-02-26T04:23:26.951Z,2.65
2023-02-26T04:25:53.590Z,2.28
2023-02-26T04:28:20.161Z,3.40
2023-02-26T04:30:47.518Z,2.33
2023-02-26T04:33:15.953Z,2.92
2023-02-26T04:35:42.918Z,3.17
2023-02-26T04:38:09.478Z,2.67
2023-02-26T04:40:36.252Z,2.85
2023-02-26T04:43:03.847Z,2.85
2023-02-26T04:45:35.302Z,2.92
2023-02-26T04:48:02.059Z,2.55
2023-02-26T04:50:28.982Z,2.67
2023-02-26T04:52:56.939Z,3.20
2023-02-26T04:55:24.192Z,2.70
2023-02-26T04:57:50.771Z,2.10
2023-02-26T05:00:22.231Z,2.25
2023-02-26T05:02:48.820Z,2.65
2023-02-26T05:05:15.392Z,4.80
2023-02-26T05:07:41.958Z,3.67
2023-02-26T05:10:08.958Z,2.92
2023-02-26T05:12:35.563Z,2.70
2023-02-26T05:15:03.504Z,3.00
2023-02-26T05:17:30.212Z,3.20
2023-02-26T05:19:56.740Z,2.80
2023-02-26T05:22:23.599Z,3.60
2023-02-26T05:24:50.102Z,3.20
2023-02-26T05:27:16.694Z,2.90
2023-02-26T05:29:46.407Z,2.90
2023-02-26T05:32:14.335Z,2.63
2023-02-26T05:34:40.877Z,2.35
2023-02-26T05:37:07.409Z,2.70
2023-02-26T05:39:34.208Z,2.58
2023-02-26T05:42:00.769Z,2.60
2023-02-26T05:44:27.345Z,3.20
2023-02-26T05:46:53.826Z,1.85
2023-02-26T05:49:20.318Z,2.88
2023-02-26T05:51:46.834Z,2.65
2023-02-26T05:54:13.484Z,3.15
2023-02-26T05:56:40.121Z,3.10
2023-02-26T05:59:06.700Z,2.50
2023-02-26T06:01:33.246Z,3.13
2023-02-26T06:03:59.926Z,3.35
2023-02-26T06:06:27.228Z,2.58
2023-02-26T06:08:53.939Z,4.00
2023-02-26T06:11:20.891Z,2.25
2023-02-26T06:13:47.508Z,3.10
2023-02-26T06:16:14.213Z,4.97
2023-02-26T06:18:40.844Z,2.83
2023-02-26T06:21:07.418Z,2.17
2023-02-26T06:23:33.944Z,3.47
2023-02-26T06:26:00.735Z,2.60
2023-02-26T06:28:27.314Z,4.03
2023-02-26T06:30:54.090Z,2.15
2023-02-26T06:33:21.168Z,2.75
2023-02-26T06:35:47.759Z,2.90
2023-02-26T06:38:14.533Z,2.75
2023-02-26T06:40:41.296Z,2.67
2023-02-26T06:43:07.839Z,2.88
2023-02-26T06:45:34.424Z,2.67
2023-02-26T06:48:01.163Z,3.10
2023-02-26T06:50:27.960Z,3.17
2023-02-26T06:52:54.600Z,3.45
2023-02-26T06:55:27.018Z,2.28
2023-02-26T06:57:57.554Z,2.63
2023-02-26T07:00:24.975Z,2.00
2023-02-26T07:02:52.274Z,2.08
2023-02-26T07:05:18.901Z,2.03
2023-02-26T07:07:45.549Z,2.05
2023-02-26T07:10:12.749Z,1.83
2023-02-26T07:12:39.686Z,2.10
2023-02-26T07:15:06.775Z,1.92
2023-02-26T07:17:33.247Z,2.28
2023-02-26T07:20:06.189Z,1.80
2023-02-26T07:22:33.593Z,2.20
2023-02-26T07:25:00.441Z,1.70
2023-02-26T07:27:27.132Z,2.40
2023-02-26T07:29:53.887Z,2.63
2023-02-26T07:32:20.477Z,5.32
2023-02-26T07:34:47.092Z,2.03
2023-02-26T07:37:13.713Z,1.67
2023-02-26T07:39:40.226Z,2.20
2023-02-26T07:42:07.116Z,1.90
2023-02-26T07:44:33.743Z,3.33
2023-02-26T07:47:00.247Z,2.00
2023-02-26T07:49:26.757Z,2.03
2023-02-26T07:51:53.514Z,2.13
2023-02-26T07:54:20.052Z,2.40
2023-02-26T07:56:46.664Z,2.35
2023-02-26T07:59:13.409Z,2.60
2023-02-26T08:01:40.279Z,3.25
2023-02-26T08:04:07.004Z,3.10
2023-02-26T08:06:35.391Z,2.85
2023-02-26T08:09:02.831Z,2.80
2023-02-26T08:11:29.562Z,2.10
2023-02-26T08:13:56.221Z,2.13
2023-02-26T08:16:22.834Z,2.10
2023-02-26T08:18:49.499Z,2.80
2023-02-26T08:21:16.179Z,3.37
2023-02-26T08:23:42.715Z,2.87
2023-02-26T08:26:10.881Z,2.30
2023-02-26T08:28:37.602Z,3.07
2023-02-26T08:31:04.509Z,2.53
2023-02-26T08:33:32.049Z,3.10
2023-02-26T08:35:59.210Z,2.27
2023-02-26T08:38:27.721Z,2.10
2023-02-26T08:40:54.729Z,2.43
2023-02-26T08:43:21.517Z,2.07
2023-02-26T08:45:48.809Z,2.73
2023-02-26T08:48:15.517Z,3.20
2023-02-26T08:50:43.120Z,2.80
2023-02-26T08:53:09.762Z,2.97
2023-02-26T08:55:36.351Z,2.60
2023-02-26T08:58:03.354Z,1.80
2023-02-26T09:00:30.332Z,1.87
2023-02-26T09:02:57.167Z,2.60
2023-02-26T09:05:23.743Z,2.37
2023-02-26T09:07:50.534Z,2.37
2023-02-26T09:10:17.494Z,2.00
2023-02-26T09:12:44.694Z,1.40
2023-02-26T09:15:12.165Z,1.80
2023-02-26T09:17:38.975Z,1.40
2023-02-26T09:20:05.774Z,1.83
2023-02-26T09:22:32.458Z,1.80
2023-02-26T09:24:59.114Z,1.33
2023-02-26T09:27:25.820Z,1.43
2023-02-26T09:29:52.428Z,1.83
2023-02-26T09:32:20.591Z,2.47
2023-02-26T09:34:47.338Z,1.60
2023-02-26T09:37:14.220Z,1.60
2023-02-26T09:39:40.789Z,2.50
2023-02-26T09:42:10.618Z,1.90
2023-02-26T09:44:38.170Z,1.87
2023-02-26T09:47:07.766Z,2.57
2023-02-26T09:49:53.255Z,1.77
2023-02-26T09:52:19.796Z,1.60
2023-02-26T09:54:47.792Z,1.33
2023-02-26T09:57:20.896Z,1.80
2023-02-26T09:59:47.609Z,1.67
2023-02-26T10:02:32.828Z,1.50
2023-02-26T10:05:19.299Z,1.50
2023-02-26T10:07:58.253Z,1.60
2023-02-26T10:10:28.234Z,2.27
2023-02-26T10:12:56.072Z,1.90
2023-02-26T10:15:24.889Z,2.67
2023-02-26T10:18:04.029Z,1.50
2023-02-26T10:20:40.037Z,2.03
2023-02-26T10:23:26.928Z,1.50
2023-02-26T10:25:57.442Z,1.53
2023-02-26T10:28:35.550Z,1.63
2023-02-26T10:31:03.677Z,1.53
2023-02-26T10:33:38.097Z,1.60
2023-02-26T10:36:11.181Z,1.17
2023-02-26T10:38:37.765Z,1.10
2023-02-26T10:41:13.749Z,1.03
2023-02-26T10:43:47.579Z,1.50
2023-02-26T10:46:23.322Z,1.27
2023-02-26T10:48:57.435Z,1.30
2023-02-26T10:51:26.136Z,1.30
2023-02-26T10:53:57.027Z,1.00
2023-02-26T10:56:29.617Z,2.30
2023-02-26T10:58:56.559Z,1.47
2023-02-26T11:01:24.970Z,1.00
2023-02-26T11:03:56.434Z,1.43
2023-02-26T11:06:24.648Z,1.50
2023-02-26T11:08:54.266Z,0.90
2023-02-26T11:11:40.317Z,1.20
2023-02-26T11:14:08.575Z,0.90
2023-02-26T11:16:36.200Z,1.50
2023-02-26T11:19:05.540Z,1.00
2023-02-26T11:21:36.205Z,1.27
2023-02-26T11:24:08.065Z,1.27
2023-02-26T11:26:36.217Z,1.30
2023-02-26T11:29:02.811Z,1.70
2023-02-26T11:31:30.535Z,1.20
2023-02-26T11:34:04.866Z,1.20
2023-02-26T11:36:32.690Z,0.90
2023-02-26T11:39:04.970Z,1.57
2023-02-26T11:41:35.497Z,1.00
2023-02-26T11:44:07.221Z,0.97
2023-02-26T11:46:37.586Z,1.07
2023-02-26T11:49:04.408Z,0.97
2023-02-26T11:51:30.970Z,1.43
2023-02-26T11:54:02.178Z,1.17
2023-02-26T11:56:40.422Z,1.20
2023-02-26T11:59:13.202Z,1.13
2023-02-26T12:01:43.233Z,1.50
2023-02-26T12:04:11.518Z,1.00
2023-02-26T12:06:38.688Z,1.07
2023-02-26T12:09:09.593Z,1.07
2023-02-26T12:11:46.412Z,0.97
2023-02-26T12:14:28.226Z,1.47
2023-02-26T12:17:07.306Z,1.20
2023-02-26T12:19:40.710Z,1.33
2023-02-26T12:22:14.073Z,0.80
2023-02-26T12:24:55.859Z,0.97
2023-02-26T12:27:31.587Z,1.10
2023-02-26T12:30:17.158Z,1.10
2023-02-26T12:33:02.577Z,0.97
2023-02-26T12:35:32.258Z,1.33
2023-02-26T12:38:28.254Z,1.47
2023-02-26T12:40:56.575Z,1.00
2023-02-26T12:43:23.150Z,0.80
2023-02-26T12:46:02.062Z,2.00
2023-02-26T12:48:51.399Z,0.90
2023-02-26T12:51:26.292Z,0.90
2023-02-26T12:53:59.844Z,0.80
2023-02-26T12:56:45.362Z,1.00
2023-02-26T12:59:14.983Z,0.83
2023-02-26T13:02:01.984Z,1.90
2023-02-26T13:04:29.005Z,1.33
2023-02-26T13:07:07.737Z,1.53
2023-02-26T13:09:46.951Z,1.23
2023-02-26T13:12:34.918Z,1.47
2023-02-26T13:15:19.056Z,1.30
2023-02-26T13:17:57.921Z,0.90
2023-02-26T13:20:25.665Z,1.03
2023-02-26T13:22:55.385Z,1.00
2023-02-26T13:25:34.053Z,0.80
2023-02-26T13:28:01.928Z,1.03
2023-02-26T13:30:34.759Z,0.77
2023-02-26T13:33:02.977Z,0.90
2023-02-26T13:35:38.425Z,1.43
2023-02-26T13:38:22.319Z,1.00
2023-02-26T13:40:51.838Z,0.80
2023-02-26T13:43:38.178Z,1.00
2023-02-26T13:46:16.521Z,1.00
2023-02-26T13:48:48.434Z,1.30
2023-02-26T13:51:24.685Z,1.00
2023-02-26T13:53:53.259Z,0.90
2023-02-26T13:56:26.313Z,1.00
2023-02-26T13:59:05.238Z,1.53
2023-02-26T14:01:33.324Z,0.93
2023-02-26T14:04:09.399Z,0.90
2023-02-26T14:06:36.427Z,0.90
2023-02-26T14:09:23.154Z,0.70
2023-02-26T14:11:55.881Z,1.00
2023-02-26T14:14:22.449Z,0.90
2023-02-26T14:16:55.342Z,1.13
2023-02-26T14:19:42.204Z,1.00
2023-02-26T14:22:26.105Z,1.00
2023-02-26T14:24:52.644Z,1.17
2023-02-26T14:27:19.298Z,1.53
2023-02-26T14:30:01.634Z,1.00
2023-02-26T14:32:31.591Z,1.53
2023-02-26T14:35:00.720Z,1.00
2023-02-26T14:37:28.630Z,1.40
2023-02-26T14:39:57.503Z,1.27
2023-02-26T14:42:35.014Z,1.27
2023-02-26T14:45:22.300Z,1.03
2023-02-26T14:47:49.575Z,1.40
2023-02-26T14:50:21.407Z,1.20
2023-02-26T14:52:51.148Z,1.53
2023-02-26T14:55:36.763Z,0.97
2023-02-26T14:58:19.851Z,1.20
2023-02-26T15:00:54.188Z,1.43
2023-02-26T15:03:23.825Z,1.13
2023-02-26T15:06:02.633Z,0.90
2023-02-26T15:08:47.415Z,1.10
2023-02-26T15:11:21.158Z,0.83
2023-02-26T15:14:06.363Z,1.07
2023-02-26T15:16:51.303Z,1.00
2023-02-26T15:19:27.180Z,1.03
2023-02-26T15:22:12.872Z,1.00
2023-02-26T15:24:40.032Z,1.50
2023-02-26T15:27:08.394Z,1.47
2023-02-26T15:29:39.240Z,1.30
2023-02-26T15:32:14.353Z,1.00
2023-02-26T15:34:47.864Z,1.47
2023-02-26T15:37:20.642Z,1.03
2023-02-26T15:39:50.702Z,0.83
2023-02-26T15:42:19.365Z,1.03
2023-02-26T15:44:56.553Z,1.27
2023-02-26T15:47:24.422Z,1.70
2023-02-26T15:49:51.073Z,1.30
2023-02-26T15:52:19.215Z,1.10
2023-02-26T15:55:00.448Z,1.40
2023-02-26T15:57:28.635Z,1.00
2023-02-26T16:00:01.446Z,1.23
2023-02-26T16:02:31.212Z,0.93
2023-02-26T16:04:57.851Z,1.60
2023-02-26T16:07:24.724Z,1.37
2023-02-26T16:09:52.945Z,1.10
2023-02-26T16:12:21.479Z,1.30
2023-02-26T16:14:57.219Z,1.57
2023-02-26T16:17:25.560Z,1.30
2023-02-26T16:19:52.997Z,1.30
2023-02-26T16:22:19.507Z,1.50
2023-02-26T16:24:53.006Z,1.13
2023-02-26T16:27:19.931Z,1.70
2023-02-26T16:29:57.211Z,0.87
2023-02-26T16:32:25.397Z,1.27
2023-02-26T16:34:56.188Z,1.20
2023-02-26T16:37:22.881Z,1.20
2023-02-26T16:40:09.110Z,1.70
2023-02-26T16:42:51.403Z,1.70
2023-02-26T16:45:21.189Z,1.40
2023-02-26T16:47:49.178Z,1.30
2023-02-26T16:50:24.727Z,1.40
2023-02-26T16:52:57.167Z,1.70
2023-02-26T16:55:25.218Z,1.50
2023-02-26T16:57:51.744Z,1.47
2023-02-26T17:00:29.852Z,1.50
2023-02-26T17:02:58.023Z,1.80
2023-02-26T17:05:26.077Z,1.73
2023-02-26T17:07:56.333Z,1.23
2023-02-26T17:10:34.022Z,1.87
2023-02-26T17:13:12.342Z,1.30
2023-02-26T17:15:39.494Z,1.60
2023-02-26T17:18:06.169Z,1.80
2023-02-26T17:20:32.839Z,1.93
2023-02-26T17:23:00.120Z,2.00
2023-02-26T17:25:29.182Z,1.50
2023-02-26T17:27:56.519Z,1.73
2023-02-26T17:30:30.168Z,3.28
2023-02-26T17:32:56.711Z,3.40
2023-02-26T17:35:23.354Z,2.17
2023-02-26T17:37:52.129Z,2.08
2023-02-26T17:40:23.490Z,1.92
2023-02-26T17:42:50.600Z,1.52
2023-02-26T17:45:17.765Z,2.05
2023-02-26T17:47:45.779Z,1.70
2023-02-26T17:50:21.069Z,2.05
2023-02-26T17:52:47.692Z,2.05
2023-02-26T17:55:14.443Z,1.98
2023-02-26T17:57:41.450Z,1.70
2023-02-26T18:00:08.890Z,2.22
2023-02-26T18:02:41.665Z,2.08
2023-02-26T18:05:08.280Z,2.35
2023-02-26T18:07:35.475Z,3.75
2023-02-26T18:10:02.367Z,2.50
2023-02-26T18:12:28.945Z,4.00
2023-02-26T18:14:55.465Z,3.75
2023-02-26T18:17:27.548Z,3.03
2023-02-26T18:19:54.478Z,3.20
2023-02-26T18:22:25.204Z,2.83
2023-02-26T18:24:52.260Z,3.25
2023-02-26T18:27:20.069Z,2.42
2023-02-26T18:29:46.852Z,3.03
2023-02-26T18:32:21.404Z,2.65
2023-02-26T18:34:49.563Z,3.00
2023-02-26T18:37:20.604Z,2.92
2023-02-26T18:39:47.389Z,2.40
2023-02-26T18:42:19.697Z,3.53
2023-02-26T18:44:46.295Z,3.47
2023-02-26T18:47:13.237Z,3.00
2023-02-26T18:49:39.757Z,3.00
2023-02-26T18:52:06.323Z,3.22
2023-02-26T18:54:32.972Z,2.90
2023-02-26T18:56:59.592Z,3.15
2023-02-26T18:59:26.524Z,3.30
2023-02-26T19:01:53.337Z,2.40
2023-02-26T19:04:19.945Z,2.53
2023-02-26T19:06:46.797Z,3.22
2023-02-26T19:09:13.599Z,2.33
2023-02-26T19:11:40.230Z,3.78
2023-02-26T19:14:06.896Z,2.40
2023-02-26T19:16:38.210Z,2.88
2023-02-26T19:19:06.656Z,3.85
2023-02-26T19:21:39.552Z,2.88
2023-02-26T19:24:07.379Z,3.20
2023-02-26T19:26:34.339Z,4.22
2023-02-26T19:29:01.184Z,4.25
2023-02-26T19:31:28.465Z,3.55
2023-02-26T19:33:55.278Z,3.95
2023-02-26T19:36:21.984Z,4.40
2023-02-26T19:38:52.060Z,4.10
2023-02-26T19:41:19.841Z,4.90
2023-02-26T19:43:47.278Z,4.25
2023-02-26T19:46:14.211Z,3.30
2023-02-26T19:48:41.379Z,3.58
2023-02-26T19:51:07.917Z,3.45
2023-02-26T19:53:35.776Z,4.18
2023-02-26T19:56:03.068Z,3.28
2023-02-26T19:58:32.972Z,3.67
2023-02-26T20:01:03.619Z,3.33
2023-02-26T20:03:30.778Z,2.97
2023-02-26T20:05:57.522Z,2.80
2023-02-26T20:08:27.057Z,3.70
2023-02-26T20:10:54.416Z,3.10
2023-02-26T20:13:22.191Z,4.13
2023-02-26T20:15:49.161Z,3.50
2023-02-26T20:18:16.302Z,3.63
2023-02-26T20:20:43.611Z,2.97
2023-02-26T20:23:10.169Z,2.50
2023-02-26T20:25:36.871Z,4.13
2023-02-26T20:28:03.571Z,3.65
2023-02-26T20:30:30.055Z,3.45
2023-02-26T20:32:56.756Z,3.95
2023-02-26T20:35:25.048Z,4.00
2023-02-26T20:37:51.900Z,4.40
2023-02-26T20:40:18.376Z,4.30
2023-02-26T20:42:44.906Z,5.28
2023-02-26T20:45:11.456Z,3.30
2023-02-26T20:47:37.937Z,3.78
2023-02-26T20:50:04.715Z,4.60
2023-02-26T20:52:31.168Z,4.22
2023-02-26T20:54:57.615Z,4.07
2023-02-26T20:57:24.116Z,3.80
2023-02-26T20:59:50.629Z,3.78
2023-02-26T21:02:20.546Z,3.45
2023-02-26T21:04:47.641Z,3.38
2023-02-26T21:07:17.519Z,3.60
2023-02-26T21:09:47.845Z,3.97
2023-02-26T21:12:18.882Z,3.67
2023-02-26T21:14:45.652Z,3.60
2023-02-26T21:17:12.315Z,3.58
2023-02-26T21:19:38.981Z,3.45
2023-02-26T21:22:05.525Z,3.85
2023-02-26T21:24:32.240Z,3.58
2023-02-26T21:26:58.822Z,4.45
2023-02-26T21:29:25.395Z,3.63
2023-02-26T21:31:53.576Z,5.15
2023-02-26T21:34:33.154Z,4.38
2023-02-26T21:37:04.384Z,5.35
2023-02-26T21:39:31.154Z,3.92
2023-02-26T21:42:00.138Z,4.72
2023-02-26T21:44:27.456Z,4.50
2023-02-26T21:46:54.312Z,6.38
2023-02-26T21:49:20.823Z,5.40
2023-02-26T21:51:47.403Z,4.53
2023-02-26T21:54:14.021Z,5.00
2023-02-26T21:56:40.515Z,5.27
2023-02-26T21:59:07.074Z,5.60
2023-02-26T22:01:34.181Z,5.47
2023-02-26T22:04:01.087Z,5.18
2023-02-26T22:06:27.787Z,6.25
2023-02-26T22:08:54.297Z,4.40
2023-02-26T22:11:20.767Z,4.43
2023-02-26T22:13:48.619Z,4.85
2023-02-26T22:16:16.172Z,4.40
2023-02-26T22:18:42.975Z,4.80
2023-02-26T22:21:09.663Z,3.70
2023-02-26T22:23:36.256Z,4.05
2023-02-26T22:26:02.870Z,4.13
2023-02-26T22:28:29.526Z,5.78
2023-02-26T22:30:56.253Z,6.07
2023-02-26T22:33:23.870Z,4.80
2023-02-26T22:35:50.595Z,5.65
2023-02-26T22:38:17.079Z,5.75
2023-02-26T22:40:43.494Z,5.55
2023-02-26T22:43:10.162Z,5.88
2023-02-26T22:45:36.867Z,5.90
2023-02-26T22:48:04.074Z,6.15
2023-02-26T22:50:30.554Z,6.47
2023-02-26T22:52:57.060Z,6.47
2023-02-26T22:55:24.085Z,6.50
2023-02-26T22:57:50.798Z,5.38
2023-02-26T23:00:18.639Z,6.80
2023-02-26T23:02:46.328Z,7.13
2023-02-26T23:05:13.042Z,6.80
2023-02-26T23:07:40.021Z,6.38
2023-02-26T23:10:08.289Z,7.57
2023-02-26T23:12:35.123Z,7.05
2023-02-26T23:15:01.742Z,6.57
2023-02-26T23:17:28.498Z,7.68
2023-02-26T23:19:55.145Z,6.20
2023-02-26T23:22:22.202Z,6.82
2023-02-26T23:24:48.730Z,5.65
2023-02-26T23:27:15.464Z,6.78
2023-02-26T23:29:42.664Z,5.47
2023-02-26T23:32:09.576Z,6.82
2023-02-26T23:34:36.327Z,5.50
2023-02-26T23:37:02.814Z,5.00
2023-02-26T23:39:29.655Z,5.45
2023-02-26T23:41:56.494Z,5.45
2023-02-26T23:44:24.541Z,5.82
2023-02-26T23:46:51.100Z,6.00
2023-02-26T23:49:17.806Z,5.40
2023-02-26T23:51:44.726Z,7.50
2023-02-26T23:54:11.517Z,4.75
2023-02-26T23:56:38.049Z,6.00
2023-02-26T23:59:04.582Z,5.03
